Time;durP1;ratioP1;P1;durP2;ratioP2;P2;SDS_P1;SDS_P2;PMS_P1;PMS_P2;Temp;Humidity;BMP_temperature;BMP_pressure;BME280_temperature;BME280_humidity;BME280_pressure;Samples;Min_cycle;Max_cycle;Signal;HPM_P1;HPM_P2
2021/12/21 00:02:26;;;;;;;12.10;5.87;;;;;;;-2.06;100.00;95206.03;4951561;28;20622;-71
2021/12/21 00:04:52;;;;;;;12.70;6.50;;;;;;;-2.27;100.00;95202.41;4949678;29;20237;-72
2021/12/21 00:07:17;;;;;;;16.23;6.47;;;;;;;-2.00;100.00;95203.81;4952387;29;20610;-71
2021/12/21 00:09:43;;;;;;;10.77;7.03;;;;;;;-1.93;100.00;95209.19;4950908;29;20555;-71
2021/12/21 00:12:12;;;;;;;12.23;6.17;;;;;;;-2.09;100.00;95192.63;4953410;28;20508;-71
2021/12/21 00:14:51;;;;;;;10.10;6.77;;;;;;;-2.21;100.00;95200.91;4952664;28;20197;-71
2021/12/21 00:17:32;;;;;;;14.70;6.93;;;;;;;-2.18;100.00;95200.19;4951826;28;20188;-71
2021/12/21 00:25:39;;;;;;;10.77;6.60;;;;;;;-2.28;100.00;95198.19;4951630;28;20199;-71
2021/12/21 00:28:05;;;;;;;15.63;7.03;;;;;;;-2.25;100.00;95197.44;4933648;29;20195;-71
2021/12/21 00:30:31;;;;;;;13.80;7.53;;;;;;;-2.38;100.00;95193.50;4952043;29;20220;-71
2021/12/21 00:32:57;;;;;;;13.70;7.17;;;;;;;-2.42;100.00;95182.00;4952254;28;20217;-71
2021/12/21 00:35:23;;;;;;;12.53;6.73;;;;;;;-2.48;100.00;95195.69;4949811;29;20278;-71
2021/12/21 00:37:48;;;;;;;11.10;6.53;;;;;;;-2.26;100.00;95185.22;4947911;28;20282;-71
2021/12/21 00:40:14;;;;;;;14.60;6.70;;;;;;;-2.17;100.00;95180.34;4949212;28;20201;-71
2021/12/21 00:42:40;;;;;;;14.00;7.10;;;;;;;-2.34;100.00;95179.00;4956704;28;20194;-71
2021/12/21 00:45:06;;;;;;;13.87;6.47;;;;;;;-2.25;100.00;95181.38;4956425;28;20209;-71
2021/12/21 00:47:35;;;;;;;13.40;9.27;;;;;;;-2.29;100.00;95169.91;4940918;28;20271;-71
2021/12/21 00:50:03;;;;;;;12.50;7.43;;;;;;;-2.29;100.00;95167.97;4946678;29;20190;-71
2021/12/21 00:52:29;;;;;;;14.17;6.97;;;;;;;-2.32;100.00;95179.41;4956702;28;20308;-71
2021/12/21 00:54:55;;;;;;;9.17;6.80;;;;;;;-2.39;100.00;95175.94;4953714;28;20280;-71
2021/12/21 00:57:21;;;;;;;13.37;6.57;;;;;;;-2.38;100.00;95175.56;4956296;28;20272;-71
2021/12/21 00:59:47;;;;;;;12.90;7.63;;;;;;;-2.37;100.00;95176.31;4955060;29;20253;-71
2021/12/21 01:02:13;;;;;;;11.90;7.37;;;;;;;-2.29;100.00;95164.56;4956185;28;20213;-71
2021/12/21 01:04:44;;;;;;;11.20;7.43;;;;;;;-2.13;100.00;95176.53;4942905;28;20205;-71
2021/12/21 01:07:21;;;;;;;13.00;6.80;;;;;;;-2.24;100.00;95172.25;4960036;28;20228;-71
2021/12/21 01:15:19;;;;;;;13.03;7.27;;;;;;;-2.33;100.00;95161.84;4955874;29;20743;-71
2021/12/21 01:18:10;;;;;;;14.00;9.30;;;;;;;-2.19;100.00;95153.97;4942339;29;20196;-71
2021/12/21 01:20:46;;;;;;;14.77;7.43;;;;;;;-2.28;100.00;95158.06;4955579;28;20221;-72
2021/12/21 01:26:36;;;;;;;11.60;8.00;;;;;;;-2.39;100.00;95152.59;4957751;28;20198;-71
2021/12/21 01:28:58;;;;;;;17.13;7.70;;;;;;;-2.59;100.00;95152.06;4954410;29;20214;-71
2021/12/21 01:31:34;;;;;;;11.73;7.70;;;;;;;-2.42;100.00;95155.25;4955058;28;20217;-71
2021/12/21 01:34:17;;;;;;;16.70;8.90;;;;;;;-2.36;100.00;95149.22;4950655;29;20611;-72
2021/12/21 01:36:56;;;;;;;13.50;7.87;;;;;;;-2.38;100.00;95148.03;4950493;28;20245;-71
2021/12/21 01:49:44;;;;;;;11.40;7.60;;;;;;;-2.29;100.00;95127.88;4936803;29;20194;-71
2021/12/21 01:52:14;;;;;;;14.40;7.97;;;;;;;-2.71;100.00;95135.50;4943924;29;20240;-71
2021/12/21 01:54:40;;;;;;;12.77;8.40;;;;;;;-2.84;100.00;95132.31;4952332;28;20213;-72
2021/12/21 01:57:07;;;;;;;9.73;6.90;;;;;;;-2.82;100.00;95124.69;4950274;29;20300;-71
2021/12/21 01:59:35;;;;;;;11.50;7.77;;;;;;;-2.58;100.00;95129.53;4954642;28;20260;-72
2021/12/21 02:02:01;;;;;;;13.40;7.70;;;;;;;-2.65;100.00;95131.38;4952792;29;20214;-72
2021/12/21 02:04:26;;;;;;;13.03;7.87;;;;;;;-2.52;100.00;95135.31;4948998;29;20213;-71
2021/12/21 02:06:52;;;;;;;14.67;7.83;;;;;;;-2.65;100.00;95123.34;4948381;28;20659;-71
2021/12/21 02:09:19;;;;;;;10.80;7.63;;;;;;;-2.75;100.00;95116.75;4957789;28;20595;-71
2021/12/21 02:11:48;;;;;;;9.13;6.53;;;;;;;-2.82;100.00;95118.59;4972500;28;20228;-71
2021/12/21 02:14:15;;;;;;;14.90;6.63;;;;;;;-2.78;100.00;95114.81;4953778;28;20248;-71
2021/12/21 02:17:01;;;;;;;9.60;7.03;;;;;;;-2.95;100.00;95103.94;4950732;29;20197;-71
2021/12/21 02:19:35;;;;;;;10.03;7.20;;;;;;;-3.08;100.00;95111.44;4954863;28;20189;-71
2021/12/21 02:22:12;;;;;;;10.27;6.67;;;;;;;-2.98;100.00;95102.00;4952937;29;20259;-72
2021/12/21 02:24:50;;;;;;;13.23;7.50;;;;;;;-2.96;100.00;95102.41;4962823;28;20197;-72
2021/12/21 02:27:27;;;;;;;16.23;6.90;;;;;;;-2.83;100.00;95090.31;4952423;29;20221;-72
2021/12/21 02:29:53;;;;;;;11.30;7.33;;;;;;;-2.89;100.00;95097.91;4952594;29;20245;-71
2021/12/21 02:32:19;;;;;;;11.73;7.23;;;;;;;-3.03;100.00;95087.09;4953927;28;20459;-72
2021/12/21 02:34:45;;;;;;;11.73;7.17;;;;;;;-3.07;100.00;95080.91;4951644;28;20206;-71
2021/12/21 02:37:11;;;;;;;10.47;7.20;;;;;;;-3.28;100.00;95087.94;4958425;28;20622;-71
2021/12/21 02:39:38;;;;;;;13.13;7.10;;;;;;;-3.43;100.00;95086.25;4957291;28;20281;-73
2021/12/21 02:42:05;;;;;;;12.77;6.90;;;;;;;-3.60;100.00;95076.13;4965225;28;20213;-71
2021/12/21 02:44:31;;;;;;;11.53;7.17;;;;;;;-3.41;100.00;95083.97;4958561;28;20201;-72
2021/12/21 02:46:57;;;;;;;11.77;7.20;;;;;;;-3.31;100.00;95080.66;4947343;29;20281;-72
2021/12/21 02:49:24;;;;;;;12.17;7.40;;;;;;;-3.17;100.00;95081.56;4935073;29;20198;-72
2021/12/21 02:51:50;;;;;;;12.03;7.50;;;;;;;-3.20;100.00;95078.88;4933745;29;20233;-72
2021/12/21 02:54:17;;;;;;;12.00;8.20;;;;;;;-3.27;100.00;95074.22;4936010;29;20230;-71
2021/12/21 02:56:44;;;;;;;11.27;7.47;;;;;;;-3.43;100.00;95081.69;4935202;29;20193;-72
2021/12/21 02:59:10;;;;;;;15.73;8.30;;;;;;;-3.54;100.00;95074.66;4951801;29;20198;-72
2021/12/21 03:01:37;;;;;;;13.73;7.77;;;;;;;-3.42;100.00;95069.84;4970168;28;20252;-72
2021/12/21 03:04:04;;;;;;;15.80;7.50;;;;;;;-3.42;100.00;95071.75;4957773;28;20198;-72
2021/12/21 03:11:56;;;;;;;13.50;7.33;;;;;;;-3.68;100.00;95088.59;4957837;28;20210;-71
2021/12/21 03:14:25;;;;;;;12.73;8.30;;;;;;;-3.60;100.00;95071.56;4967074;28;20189;-71
2021/12/21 03:16:51;;;;;;;18.47;7.70;;;;;;;-3.54;100.00;95078.09;4952640;28;20670;-71
2021/12/21 03:19:16;;;;;;;12.77;7.20;;;;;;;-3.46;100.00;95076.28;4954388;29;20687;-71
2021/12/21 03:21:42;;;;;;;11.40;7.20;;;;;;;-3.45;100.00;95080.50;4943588;28;20400;-71
2021/12/21 03:24:09;;;;;;;14.90;7.63;;;;;;;-3.54;100.00;95074.66;4963426;28;20232;-72
2021/12/21 03:26:36;;;;;;;11.33;7.07;;;;;;;-3.41;100.00;95074.06;4952913;28;20581;-71
2021/12/21 03:29:03;;;;;;;13.30;8.50;;;;;;;-3.60;100.00;95081.44;4952666;29;20530;-72
2021/12/21 03:31:29;;;;;;;13.10;8.40;;;;;;;-3.32;100.00;95058.53;4933274;29;20630;-71
2021/12/21 03:33:54;;;;;;;18.10;9.80;;;;;;;-3.43;100.00;95065.66;4938136;29;20222;-71
2021/12/21 03:36:20;;;;;;;10.33;7.43;;;;;;;-3.50;100.00;95064.81;4951271;28;20644;-71
2021/12/21 03:38:55;;;;;;;15.30;8.20;;;;;;;-3.57;100.00;95056.69;4957865;28;20651;-71
2021/12/21 03:41:21;;;;;;;14.83;8.00;;;;;;;-3.57;100.00;95062.81;4964062;28;20222;-71
2021/12/21 03:43:47;;;;;;;15.23;7.87;;;;;;;-3.77;100.00;95072.09;4943756;29;20569;-71
2021/12/21 03:46:15;;;;;;;12.33;8.23;;;;;;;-3.70;100.00;95056.94;4942398;29;20664;-71
2021/12/21 03:48:45;;;;;;;19.63;10.17;;;;;;;-3.59;100.00;95061.63;4933835;29;20194;-71
2021/12/21 03:51:13;;;;;;;13.10;8.63;;;;;;;-3.62;100.00;95057.81;4932958;29;20243;-71
2021/12/21 03:53:39;;;;;;;16.57;9.03;;;;;;;-3.75;100.00;95059.91;4942530;29;20236;-71
2021/12/21 03:58:49;;;;;;;13.80;9.10;;;;;;;-3.51;100.00;95050.69;4933958;29;20198;-71
2021/12/21 04:01:15;;;;;;;16.23;8.90;;;;;;;-3.72;100.00;95063.78;4933723;29;20230;-71
2021/12/21 04:03:41;;;;;;;17.80;9.40;;;;;;;-3.73;100.00;95047.00;4951240;28;20201;-72
2021/12/21 04:06:07;;;;;;;16.87;9.67;;;;;;;-3.63;100.00;95042.16;4967606;28;20229;-71
2021/12/21 04:08:36;;;;;;;21.07;9.80;;;;;;;-3.66;100.00;95045.56;4967186;28;20240;-71
2021/12/21 04:11:03;;;;;;;15.03;9.77;;;;;;;-3.68;100.00;95050.47;4971654;28;20272;-71
2021/12/21 04:13:30;;;;;;;15.23;9.07;;;;;;;-3.87;100.00;95057.47;4972360;28;20236;-71
2021/12/21 04:15:59;;;;;;;15.20;9.70;;;;;;;-3.64;100.00;95045.94;4944497;28;20309;-71
2021/12/21 04:18:25;;;;;;;16.47;10.40;;;;;;;-3.50;100.00;95038.09;4951103;29;20280;-71
2021/12/21 04:20:51;;;;;;;16.70;10.27;;;;;;;-3.65;100.00;95047.88;4952325;28;20311;-72
2021/12/21 04:23:17;;;;;;;15.67;9.50;;;;;;;-3.76;100.00;95036.28;4948455;28;20202;-71
2021/12/21 04:25:43;;;;;;;19.07;10.83;;;;;;;-4.01;100.00;95037.84;4949132;29;20206;-71
2021/12/21 04:28:09;;;;;;;16.57;10.97;;;;;;;-4.07;100.00;95041.94;4952695;28;20284;-71
2021/12/21 04:30:35;;;;;;;23.87;13.53;;;;;;;-3.84;100.00;95032.00;4952405;28;20242;-72
2021/12/21 04:33:00;;;;;;;23.93;12.93;;;;;;;-3.59;100.00;95040.28;4935664;29;20245;-72
2021/12/21 04:35:26;;;;;;;26.73;13.40;;;;;;;-3.58;100.00;95042.59;4953243;28;20193;-71
2021/12/21 04:38:12;;;;;;;23.73;13.67;;;;;;;-3.45;100.00;95049.25;4946053;28;20202;-71
2021/12/21 04:40:42;;;;;;;24.50;13.23;;;;;;;-3.38;100.00;95052.00;4952462;28;20702;-71
2021/12/21 04:43:08;;;;;;;22.30;12.57;;;;;;;-3.39;100.00;95055.03;4952172;28;20206;-71
2021/12/21 04:45:33;;;;;;;22.87;13.00;;;;;;;-3.45;100.00;95059.91;4951947;28;20194;-72
2021/12/21 04:47:59;;;;;;;22.67;13.27;;;;;;;-3.44;100.00;95050.75;4947720;28;20217;-71
2021/12/21 04:50:25;;;;;;;27.30;14.03;;;;;;;-3.49;100.00;95058.31;4952761;28;20190;-72
2021/12/21 04:52:51;;;;;;;24.20;13.70;;;;;;;-3.58;100.00;95049.84;4952855;28;20218;-71
2021/12/21 04:55:16;;;;;;;23.97;12.80;;;;;;;-3.62;100.00;95057.03;4949042;28;20206;-71
2021/12/21 04:57:43;;;;;;;19.37;12.10;;;;;;;-3.70;100.00;95054.25;4951291;29;20666;-71
2021/12/21 05:00:12;;;;;;;23.57;13.73;;;;;;;-3.73;100.00;95055.00;4950419;28;20209;-71
2021/12/21 05:02:38;;;;;;;21.87;13.20;;;;;;;-3.73;100.00;95062.22;4951539;28;20228;-71
2021/12/21 05:05:04;;;;;;;21.77;12.50;;;;;;;-3.82;100.00;95064.41;4948534;29;20614;-71
2021/12/21 05:07:32;;;;;;;18.20;10.33;;;;;;;-4.10;100.00;95064.00;4947792;28;20280;-71
2021/12/21 05:10:01;;;;;;;21.60;12.67;;;;;;;-4.28;100.00;95077.09;4956375;28;20632;-71
2021/12/21 05:12:26;;;;;;;26.33;12.63;;;;;;;-4.38;100.00;95072.38;4967834;28;20647;-71
2021/12/21 05:14:53;;;;;;;26.17;13.17;;;;;;;-4.49;100.00;95065.34;4954631;28;20229;-71
2021/12/21 05:17:20;;;;;;;44.37;13.10;;;;;;;-4.58;100.00;95064.81;4953837;28;20665;-72
2021/12/21 05:19:46;;;;;;;39.33;12.10;;;;;;;-4.58;100.00;95072.81;4950236;28;20322;-71
2021/12/21 05:22:12;;;;;;;42.27;14.63;;;;;;;-4.66;100.00;95082.56;4964442;28;20586;-72
2021/12/21 05:24:39;;;;;;;29.80;13.37;;;;;;;-4.44;100.00;95076.47;4962129;28;20194;-72
2021/12/21 05:27:06;;;;;;;48.37;15.43;;;;;;;-4.37;100.00;95081.91;4953742;28;20205;-72
2021/12/21 05:29:32;;;;;;;31.73;14.67;;;;;;;-4.37;100.00;95071.25;4975236;28;20659;-72
2021/12/21 05:31:59;;;;;;;36.37;15.20;;;;;;;-4.21;100.00;95079.84;4959575;28;20220;-72
2021/12/21 05:34:26;;;;;;;54.93;15.23;;;;;;;-4.22;100.00;95077.53;4953737;28;20213;-72
2021/12/21 05:36:52;;;;;;;56.33;15.63;;;;;;;-4.08;100.00;95080.44;4956388;28;20193;-72
2021/12/21 05:39:22;;;;;;;29.67;15.60;;;;;;;-4.04;100.00;95083.94;4962634;28;20211;-72
2021/12/21 05:44:14;;;;;;;34.13;13.87;;;;;;;-3.89;100.00;95083.75;4936820;29;20198;-72
2021/12/21 05:46:40;;;;;;;27.13;16.40;;;;;;;-3.78;100.00;95086.56;4940640;29;20194;-72
2021/12/21 05:49:07;;;;;;;27.80;15.83;;;;;;;-3.67;100.00;95087.47;4920953;29;20201;-71
2021/12/21 05:51:32;;;;;;;24.70;14.50;;;;;;;-3.80;100.00;95094.13;4954107;28;20225;-72
2021/12/21 05:53:58;;;;;;;26.23;15.87;;;;;;;-3.57;100.00;95092.19;4954089;29;20273;-72
2021/12/21 05:56:24;;;;;;;25.50;14.43;;;;;;;-3.73;100.00;95095.00;4950551;28;20216;-72
2021/12/21 05:58:50;;;;;;;27.13;15.07;;;;;;;-3.63;100.00;95098.94;4969382;28;20204;-72
2021/12/21 06:01:16;;;;;;;37.53;17.33;;;;;;;-3.79;100.00;95090.38;4957676;28;20221;-73
2021/12/21 06:03:43;;;;;;;26.07;16.00;;;;;;;-3.71;100.00;95076.75;4968870;28;20197;-73
2021/12/21 06:06:13;;;;;;;26.20;16.73;;;;;;;-3.67;100.00;95087.47;4971447;28;20205;-72
2021/12/21 06:08:39;;;;;;;27.30;14.47;;;;;;;-3.35;100.00;95085.97;4972469;28;20216;-73
2021/12/21 06:11:07;;;;;;;29.03;15.40;;;;;;;-3.38;100.00;95083.25;4974073;28;20308;-72
2021/12/21 06:22:43;;;;;;;30.37;15.90;;;;;;;-3.59;100.00;95080.31;4953279;28;20572;-72
2021/12/21 06:27:21;;;;;;;21.10;13.47;;;;;;;-3.57;100.00;95089.50;4963999;28;20193;-72
2021/12/21 06:29:47;;;;;;;26.50;15.40;;;;;;;-3.42;100.00;95088.53;4960859;28;20194;-72
2021/12/21 06:32:13;;;;;;;25.57;14.67;;;;;;;-3.26;100.00;95109.72;4958645;28;20229;-72
2021/12/21 06:34:39;;;;;;;24.63;14.17;;;;;;;-3.24;100.00;95100.19;4950415;28;20202;-72
2021/12/21 06:37:05;;;;;;;20.77;13.37;;;;;;;-3.34;100.00;95097.41;4948702;28;20201;-72
2021/12/21 06:39:33;;;;;;;21.10;13.50;;;;;;;-3.38;100.00;95086.69;4963105;28;20197;-72
2021/12/21 06:41:59;;;;;;;23.80;13.50;;;;;;;-3.39;100.00;95098.50;4972542;28;20256;-72
2021/12/21 06:44:25;;;;;;;22.40;13.30;;;;;;;-3.46;100.00;95094.97;4967299;28;20190;-72
2021/12/21 06:52:18;;;;;;;24.43;14.53;;;;;;;-3.49;100.00;95090.34;4933066;29;20811;-72
2021/12/21 06:54:44;;;;;;;20.17;12.87;;;;;;;-3.50;100.00;95094.16;4944436;28;20218;-73
2021/12/21 06:57:09;;;;;;;23.57;14.43;;;;;;;-3.43;100.00;95087.00;4954973;28;20202;-72
2021/12/21 06:59:35;;;;;;;23.93;13.70;;;;;;;-3.53;100.00;95090.34;4955921;28;20265;-73
2021/12/21 07:02:02;;;;;;;24.60;13.70;;;;;;;-3.58;100.00;95100.53;4949521;28;20341;-72
2021/12/21 07:04:28;;;;;;;23.57;13.13;;;;;;;-3.63;100.00;95104.28;4960460;28;20614;-72
2021/12/21 07:06:55;;;;;;;24.97;14.27;;;;;;;-3.64;100.00;95096.63;4961307;28;20191;-72
2021/12/21 07:09:40;;;;;;;24.87;14.63;;;;;;;-3.47;100.00;95098.75;4942253;29;20281;-72
2021/12/21 07:17:49;;;;;;;22.07;13.43;;;;;;;-3.51;100.00;95095.31;4947029;29;20212;-72
2021/12/21 07:18:13;;;;;;;23.53;13.93;;;;;;;-3.46;100.00;95103.75;4934478;28;20265;-72
2021/12/21 07:20:39;;;;;;;21.67;11.73;;;;;;;-3.59;100.00;95086.44;4949369;29;20653;-72
2021/12/21 07:23:05;;;;;;;19.87;12.53;;;;;;;-3.53;100.00;95087.66;4952928;28;20222;-72
2021/12/21 07:25:32;;;;;;;21.90;13.40;;;;;;;-3.52;100.00;95086.50;4949317;29;20285;-72
2021/12/21 07:27:58;;;;;;;21.73;14.50;;;;;;;-3.43;100.00;95102.25;4936669;29;20190;-72
2021/12/21 07:30:24;;;;;;;22.60;13.40;;;;;;;-3.19;100.00;95099.88;4959322;28;20225;-72
2021/12/21 07:32:49;;;;;;;20.27;13.13;;;;;;;-3.31;100.00;95094.75;4953261;28;20266;-73
2021/12/21 07:35:16;;;;;;;22.83;13.03;;;;;;;-3.50;100.00;95091.50;4954096;28;20223;-73
2021/12/21 07:37:42;;;;;;;26.17;14.07;;;;;;;-3.34;100.00;95087.50;4959546;28;20194;-73
2021/12/21 07:40:09;;;;;;;21.30;14.47;;;;;;;-3.13;100.00;95093.09;4953351;28;20509;-73
2021/12/21 07:42:34;;;;;;;22.77;13.63;;;;;;;-3.31;100.00;95086.75;4952678;29;20304;-73
2021/12/21 07:45:00;;;;;;;30.10;19.17;;;;;;;-3.36;100.00;95086.31;4951755;29;20678;-73
2021/12/21 07:47:26;;;;;;;25.13;18.23;;;;;;;-3.21;100.00;95085.34;4938581;28;20217;-73
2021/12/21 07:49:52;;;;;;;34.97;23.80;;;;;;;-3.35;100.00;95074.50;4933868;29;20211;-73
2021/12/21 07:52:18;;;;;;;23.47;15.13;;;;;;;-3.25;100.00;95077.31;4953600;29;20236;-73
2021/12/21 07:54:45;;;;;;;43.87;29.37;;;;;;;-3.20;100.00;95074.31;4949790;29;20206;-73
2021/12/21 07:57:10;;;;;;;70.60;46.50;;;;;;;-3.27;100.00;95076.13;4949927;29;20194;-73
2021/12/21 07:59:38;;;;;;;82.83;58.10;;;;;;;-3.22;100.00;95076.56;4951528;29;20194;-73
2021/12/21 08:02:05;;;;;;;23.20;14.87;;;;;;;-3.19;100.00;95070.50;4951448;29;20251;-73
2021/12/21 08:04:31;;;;;;;27.50;15.53;;;;;;;-2.99;100.00;95085.22;4954533;28;20265;-73
2021/12/21 08:07:03;;;;;;;25.77;16.83;;;;;;;-2.91;100.00;95086.81;4959498;28;20226;-73
2021/12/21 08:09:38;;;;;;;22.93;12.67;;;;;;;-2.82;100.00;95086.53;4934552;29;20186;-73
2021/12/21 08:12:15;;;;;;;22.90;15.77;;;;;;;-2.79;100.00;95086.56;4963786;28;20219;-73
2021/12/21 08:14:42;;;;;;;23.60;16.83;;;;;;;-2.81;100.00;95090.72;4947599;29;20284;-72
2021/12/21 08:17:08;;;;;;;41.17;28.97;;;;;;;-3.12;100.00;95101.88;4933425;29;20281;-73
2021/12/21 08:19:33;;;;;;;25.63;17.57;;;;;;;-2.83;100.00;95083.09;4948997;29;20218;-73
2021/12/21 08:21:59;;;;;;;26.33;17.93;;;;;;;-2.80;100.00;95092.28;4942550;29;20228;-73
2021/12/21 08:24:25;;;;;;;17.50;12.20;;;;;;;-2.95;100.00;95098.59;4962771;28;20197;-73
2021/12/21 08:26:50;;;;;;;28.93;17.73;;;;;;;-2.81;100.00;95102.19;4971752;28;20284;-73
2021/12/21 08:29:16;;;;;;;18.77;12.13;;;;;;;-2.91;100.00;95099.41;4972241;28;20244;-72
2021/12/21 08:31:42;;;;;;;26.90;16.20;;;;;;;-2.78;100.00;95096.09;4952058;28;20289;-72
2021/12/21 08:34:10;;;;;;;19.93;13.07;;;;;;;-2.55;100.00;95096.72;4957645;28;20232;-73
2021/12/21 08:36:36;;;;;;;16.73;11.43;;;;;;;-2.46;100.00;95104.41;4953637;28;20732;-73
2021/12/21 08:39:04;;;;;;;26.07;16.87;;;;;;;-2.76;100.00;95106.44;4934088;29;20198;-73
2021/12/21 08:41:30;;;;;;;17.10;11.53;;;;;;;-2.52;100.00;95106.69;4949247;28;20671;-73
2021/12/21 08:43:56;;;;;;;23.37;14.97;;;;;;;-2.78;100.00;95098.00;4952404;28;20201;-73
2021/12/21 08:46:22;;;;;;;20.30;11.37;;;;;;;-2.80;100.00;95102.97;4943912;28;20197;-73
2021/12/21 08:48:48;;;;;;;15.93;11.90;;;;;;;-2.92;100.00;95105.91;4959779;28;20260;-73
2021/12/21 08:51:13;;;;;;;17.80;11.37;;;;;;;-2.90;100.00;95108.97;4971217;28;20678;-73
2021/12/21 08:53:42;;;;;;;18.80;11.80;;;;;;;-2.64;100.00;95116.84;4950256;29;20694;-73
2021/12/21 08:56:09;;;;;;;17.80;12.07;;;;;;;-2.68;100.00;95106.13;4944338;29;20252;-73
2021/12/21 08:58:34;;;;;;;15.57;10.90;;;;;;;-2.36;100.00;95106.44;4952666;28;20265;-73
2021/12/21 09:01:00;;;;;;;17.30;11.70;;;;;;;-2.63;100.00;95100.44;4951264;28;20553;-73
2021/12/21 09:03:26;;;;;;;16.80;11.30;;;;;;;-2.43;100.00;95103.69;4961816;28;20621;-73
2021/12/21 09:05:52;;;;;;;39.27;19.17;;;;;;;-2.29;100.00;95103.03;4967108;28;20543;-73
2021/12/21 09:08:19;;;;;;;30.03;16.60;;;;;;;-2.09;100.00;95099.00;4956951;28;20272;-73
2021/12/21 09:10:44;;;;;;;24.90;14.50;;;;;;;-2.32;100.00;95095.75;4954901;29;20206;-73
2021/12/21 09:13:11;;;;;;;21.07;11.43;;;;;;;-2.34;100.00;95098.03;4956139;28;20217;-73
2021/12/21 09:15:38;;;;;;;19.27;11.03;;;;;;;-2.27;100.00;95098.09;4952821;28;20202;-73
2021/12/21 09:18:04;;;;;;;15.50;10.20;;;;;;;-2.31;100.00;95091.94;4951594;29;20205;-73
2021/12/21 09:20:31;;;;;;;19.07;10.37;;;;;;;-2.16;100.00;95104.28;4947011;28;20260;-73
2021/12/21 09:22:58;;;;;;;22.77;13.50;;;;;;;-1.91;100.00;95091.84;4958735;28;20189;-73
2021/12/21 09:25:25;;;;;;;24.23;14.80;;;;;;;-1.76;100.00;95098.81;4963742;28;20194;-73
2021/12/21 09:27:51;;;;;;;28.37;15.03;;;;;;;-1.65;100.00;95097.75;4955922;28;20252;-73
2021/12/21 09:30:18;;;;;;;28.63;16.80;;;;;;;-1.53;100.00;95091.31;4941260;28;20205;-73
2021/12/21 09:32:44;;;;;;;29.90;19.47;;;;;;;-1.29;100.00;95096.75;4941342;28;20227;-72
2021/12/21 09:35:10;;;;;;;20.53;13.30;;;;;;;-0.96;100.00;95103.00;4960952;28;20277;-73
2021/12/21 09:37:38;;;;;;;16.43;10.90;;;;;;;-0.94;100.00;95096.13;4943464;28;20226;-73
2021/12/21 09:40:08;;;;;;;14.07;10.77;;;;;;;-0.88;100.00;95089.25;4957056;28;20205;-73
2021/12/21 09:42:35;;;;;;;66.43;49.83;;;;;;;-0.70;100.00;95092.75;4971788;28;20216;-73
2021/12/21 09:45:01;;;;;;;23.37;16.83;;;;;;;-0.58;100.00;95100.44;4960463;28;20194;-73
2021/12/21 09:47:27;;;;;;;16.00;11.23;;;;;;;-0.60;100.00;95093.91;4936258;29;20262;-73
2021/12/21 09:49:53;;;;;;;28.73;21.60;;;;;;;-0.60;100.00;95092.00;4919596;29;20194;-73
2021/12/21 09:52:22;;;;;;;28.07;18.23;;;;;;;-0.46;100.00;95092.00;4936287;29;20692;-73
2021/12/21 09:54:49;;;;;;;12.80;8.60;;;;;;;-1.11;100.00;95086.13;4937734;29;20602;-73
2021/12/21 09:57:17;;;;;;;15.67;9.70;;;;;;;-1.25;100.00;95086.06;4936130;29;20732;-73
2021/12/21 09:59:48;;;;;;;13.13;9.50;;;;;;;-1.06;100.00;95084.97;4951049;29;20778;-73
2021/12/21 10:02:17;;;;;;;14.27;8.93;;;;;;;-1.32;100.00;95080.69;4938152;29;20570;-73
2021/12/21 10:04:55;;;;;;;15.23;10.13;;;;;;;-1.50;100.00;95069.91;4955302;29;20209;-73
2021/12/21 10:07:22;;;;;;;12.70;8.70;;;;;;;-1.42;100.00;95092.88;4945118;29;20254;-73
2021/12/21 10:09:50;;;;;;;12.97;9.30;;;;;;;-1.36;100.00;95083.34;4949820;28;20221;-73
2021/12/21 10:12:28;;;;;;;12.13;8.63;;;;;;;-1.54;100.00;95079.81;4961432;28;20210;-73
2021/12/21 10:15:12;;;;;;;14.27;9.47;;;;;;;-1.43;100.00;95094.03;4953911;28;20194;-73
2021/12/21 10:17:48;;;;;;;13.63;8.40;;;;;;;-1.31;100.00;95091.00;4955049;29;20190;-73
2021/12/21 10:20:14;;;;;;;16.23;10.43;;;;;;;-1.21;100.00;95076.16;4955045;28;20212;-73
2021/12/21 10:22:50;;;;;;;14.30;9.83;;;;;;;-1.24;100.00;95083.00;4955824;28;20493;-73
2021/12/21 10:25:16;;;;;;;12.03;9.37;;;;;;;-1.45;100.00;95090.19;4941741;28;20228;-73
2021/12/21 10:27:44;;;;;;;13.13;9.30;;;;;;;-1.31;100.00;95077.63;4939189;29;20551;-73
2021/12/21 10:30:10;;;;;;;13.97;9.40;;;;;;;-1.17;100.00;95079.59;4953373;29;20200;-73
2021/12/21 10:32:36;;;;;;;18.43;9.70;;;;;;;-1.06;100.00;95072.38;4950661;28;20259;-73
2021/12/21 10:35:08;;;;;;;13.03;9.10;;;;;;;-0.97;100.00;95072.78;4936434;29;20199;-73
2021/12/21 10:37:37;;;;;;;13.40;9.50;;;;;;;-0.93;100.00;95072.78;4953122;28;20229;-73
2021/12/21 10:40:22;;;;;;;13.13;8.43;;;;;;;-1.04;100.00;95070.06;4962092;28;20566;-73
2021/12/21 10:42:58;;;;;;;14.37;10.00;;;;;;;-0.87;100.00;95069.34;4974029;28;20294;-73
2021/12/21 10:45:39;;;;;;;15.90;9.53;;;;;;;-0.84;100.00;95065.91;4954711;28;20198;-73
2021/12/21 10:48:08;;;;;;;10.37;7.77;;;;;;;-0.77;100.00;95057.88;4935643;29;20208;-71
2021/12/21 10:50:35;;;;;;;12.17;8.73;;;;;;;-0.80;100.00;95052.50;4942284;28;20224;-71
2021/12/21 10:53:03;;;;;;;16.47;11.07;;;;;;;-0.90;100.00;95048.66;4952264;28;20213;-71
2021/12/21 10:55:38;;;;;;;13.57;8.33;;;;;;;-1.04;100.00;95053.22;4951891;29;20218;-71
2021/12/21 10:58:06;;;;;;;13.67;8.87;;;;;;;-1.27;100.00;95053.53;4933742;29;20289;-71
2021/12/21 11:00:32;;;;;;;12.17;8.03;;;;;;;-1.24;100.00;95056.22;4955151;28;20208;-71
2021/12/21 11:02:58;;;;;;;20.90;14.13;;;;;;;-1.30;100.00;95051.59;4939924;29;20261;-71
2021/12/21 11:05:24;;;;;;;10.93;8.27;;;;;;;-1.47;100.00;95049.63;4950767;28;20251;-71
2021/12/21 11:07:56;;;;;;;14.90;9.10;;;;;;;-1.33;100.00;95050.47;4940539;29;20288;-71
2021/12/21 11:10:27;;;;;;;11.10;8.20;;;;;;;-1.28;100.00;95047.41;4948428;28;20248;-71
2021/12/21 11:13:14;;;;;;;13.93;8.73;;;;;;;-1.44;100.00;95043.50;4953059;28;20213;-71
2021/12/21 11:15:51;;;;;;;15.97;8.43;;;;;;;-1.33;100.00;95041.66;4948756;28;20631;-71
2021/12/21 11:18:17;;;;;;;14.43;9.73;;;;;;;0.01;100.00;95039.88;4933672;29;20261;-71
2021/12/21 11:20:45;;;;;;;15.40;10.03;;;;;;;-0.08;100.00;95040.25;4933846;29;20309;-70
2021/12/21 11:23:13;;;;;;;10.93;8.30;;;;;;;0.01;100.00;95042.56;4943563;28;20219;-71
2021/12/21 11:25:41;;;;;;;12.83;7.40;;;;;;;0.55;100.00;95047.41;4961199;28;20255;-71
2021/12/21 11:28:07;;;;;;;11.33;7.80;;;;;;;1.38;100.00;95041.22;4953916;28;20188;-71
2021/12/21 11:30:34;;;;;;;9.37;6.33;;;;;;;0.35;100.00;95040.94;4963964;28;20685;-72
2021/12/21 11:33:02;;;;;;;13.03;7.87;;;;;;;-0.04;100.00;95037.56;4944654;28;20557;-71
2021/12/21 11:38:09;;;;;;;12.20;7.03;;;;;;;-0.70;100.00;95043.72;4938896;29;20202;-72
2021/12/21 11:40:43;;;;;;;11.47;7.57;;;;;;;-0.72;100.00;95033.38;4935783;29;20225;-72
2021/12/21 11:43:09;;;;;;;11.00;7.57;;;;;;;-0.50;100.00;95039.50;4952348;28;20198;-73
2021/12/21 11:46:07;;;;;;;8.50;6.70;;;;;;;-0.37;100.00;95027.25;4952148;28;20205;-73
2021/12/21 11:48:50;;;;;;;11.17;7.67;;;;;;;0.07;100.00;95024.88;4952815;29;20204;-72
2021/12/21 11:51:22;;;;;;;9.77;7.13;;;;;;;0.00;100.00;95022.25;4953402;28;20217;-72
2021/12/21 11:53:48;;;;;;;11.57;7.57;;;;;;;0.05;100.00;95021.06;4948094;28;20308;-72
2021/12/21 11:56:20;;;;;;;10.90;6.60;;;;;;;-0.24;100.00;95018.41;4955150;28;20282;-72
2021/12/21 11:58:49;;;;;;;11.53;7.20;;;;;;;-0.24;100.00;95005.00;4953188;28;20190;-72
2021/12/21 12:01:20;;;;;;;11.60;7.73;;;;;;;-0.56;100.00;95014.97;4959164;28;20280;-72
2021/12/21 12:04:01;;;;;;;8.53;6.80;;;;;;;-0.66;100.00;95015.00;4948054;28;20197;-72
2021/12/21 12:06:41;;;;;;;9.20;6.93;;;;;;;-0.76;100.00;95015.72;4952616;28;20193;-72
2021/12/21 12:09:07;;;;;;;10.90;6.93;;;;;;;-0.79;100.00;95013.81;4953330;28;20664;-72
2021/12/21 12:11:35;;;;;;;12.37;7.40;;;;;;;-0.78;100.00;95015.38;4951252;28;20260;-72
2021/12/21 12:14:13;;;;;;;9.43;6.43;;;;;;;-0.70;100.00;95019.59;4953285;28;20218;-72
2021/12/21 12:16:43;;;;;;;10.57;6.80;;;;;;;-0.80;100.00;95007.72;4947589;29;20202;-72
2021/12/21 12:19:18;;;;;;;12.80;7.47;;;;;;;-0.72;100.00;95006.56;4934394;29;20237;-72